»·PEaware :: N493RM KHHR-KPMD

N493RM :: KHHR-KPMD

FLIGHT INFORMATION

Flight Status: Arrived
Operator: Privately registered:
United States
More flights under this callsign
Pilot: Alexander S. (32711)
Aircraft: CESSNA 172 SKYHAWK
(C172)
More flights by this aircraft type
Origin: KHHR Northrop/Hawthorne Mun
United States
Destination: KPMD Palmdale AF Plant 42
United States
More flights between these airports :: More routes between these airports
Route: LAX V165 V518 PMD
File this flight plan on PilotEdge
Remarks: SCTP30
Altitude:
(Current/Filed)
9,000ft
Speed:
(Current/Filed)
110kts
Departed: 24-May-21 05:31 PM
Arrived: 24-May-21 06:32 PM
Distance/Time
Traveled:
44nm/1:00
Distance/Time
To Go:
Arrived

Flight Plot

Page will automatically refresh every two minutes.

Flight plan parsing failed; only flown route is shown


Map Options




Map Legend


Flown Route
Filed Route
Departure Airport
Arrival Airport
Navaid (VOR, NDB)
Fix

Horizontal Profiles

Position Reports

Time Latitude Longitude Heading Altitude Ground
Speed
24-May-21 17:08 33.921959 -118.340455 66 67ft 0kts
24-May-21 17:09 33.921959 -118.340455 66 67ft 0kts
24-May-21 17:10 33.921959 -118.340455 66 67ft 0kts
24-May-21 17:11 33.921959 -118.340455 66 67ft 0kts
24-May-21 17:12 33.921959 -118.340455 66 67ft 0kts
24-May-21 17:13 33.921959 -118.340455 66 67ft 0kts
24-May-21 17:14 33.921959 -118.340455 66 67ft 0kts
24-May-21 17:15 33.921959 -118.340455 66 67ft 0kts
24-May-21 17:16 33.921959 -118.340455 66 67ft 0kts
24-May-21 17:17 33.921959 -118.340455 66 67ft 0kts
24-May-21 17:18 33.921959 -118.340455 66 67ft 0kts
24-May-21 17:19 33.921959 -118.340455 66 67ft 0kts
24-May-21 17:20 33.921959 -118.340455 66 67ft 0kts
24-May-21 17:21 33.921959 -118.340455 66 67ft 0kts
24-May-21 17:22 33.921959 -118.340455 66 67ft 0kts
24-May-21 17:23 33.921959 -118.340455 66 67ft 0kts
24-May-21 17:24 33.921959 -118.340455 66 67ft 0kts
24-May-21 17:25 33.922314 -118.337671 87 65ft 22kts
24-May-21 17:26 33.922577 -118.332206 85 65ft 21kts
24-May-21 17:27 33.922805 -118.327323 55 63ft 7kts
24-May-21 17:28 33.922853 -118.327267 33 63ft 0kts
24-May-21 17:29 33.922853 -118.327267 33 63ft 0kts
24-May-21 17:30 33.922951 -118.334333 265 117ft 73kts
24-May-21 17:31 33.911431 -118.359377 223 1009ft 86kts
24-May-21 17:32 33.887484 -118.380675 222 2019ft 82kts
24-May-21 17:33 33.860764 -118.406376 226 3130ft 85kts
24-May-21 17:34 33.838677 -118.423230 177 3998ft 99kts
24-May-21 17:35 33.828675 -118.398231 83 4697ft 97kts
24-May-21 17:36 33.842849 -118.392907 329 5189ft 77kts
24-May-21 17:37 33.863226 -118.402194 333 5893ft 77kts
24-May-21 17:38 33.881332 -118.410806 332 6496ft 80kts
24-May-21 17:39 33.900535 -118.419314 339 7102ft 82kts
24-May-21 17:40 33.921563 -118.426755 339 7713ft 82kts
24-May-21 17:42 33.942414 -118.431521 353 8245ft 85kts
24-May-21 17:43 33.963492 -118.433594 352 8752ft 85kts
24-May-21 17:44 33.985114 -118.436077 354 8986ft 96kts
24-May-21 17:45 34.008017 -118.436827 357 9040ft 97kts
24-May-21 17:46 34.032092 -118.438137 354 9048ft 97kts
24-May-21 17:47 34.057370 -118.439653 354 9055ft 97kts
24-May-21 17:48 34.083277 -118.441649 353 9053ft 97kts
24-May-21 17:49 34.109952 -118.442468 357 9056ft 97kts
24-May-21 17:50 34.133194 -118.443349 354 9062ft 97kts
24-May-21 17:51 34.155837 -118.445230 353 9013ft 99kts
24-May-21 17:52 34.179764 -118.446484 357 8969ft 98kts
24-May-21 17:53 34.204635 -118.447245 355 8978ft 97kts
24-May-21 17:54 34.230113 -118.449121 354 9007ft 97kts
24-May-21 17:55 34.259173 -118.450776 355 9033ft 97kts
24-May-21 17:56 34.294325 -118.453467 353 9060ft 97kts
24-May-21 17:57 34.324755 -118.455483 354 9019ft 98kts
24-May-21 17:58 34.352113 -118.457218 354 8967ft 97kts
24-May-21 17:59 34.379133 -118.457979 25 8974ft 101kts
24-May-21 18:00 34.397876 -118.431688 38 8987ft 104kts
24-May-21 18:01 34.416249 -118.404541 45 8977ft 105kts
24-May-21 18:02 34.434126 -118.376622 44 8947ft 104kts
24-May-21 18:03 34.451545 -118.349137 47 9041ft 102kts
24-May-21 18:04 34.469058 -118.321962 47 9098ft 102kts
24-May-21 18:04 34.482783 -118.298246 49 9091ft 105kts
24-May-21 18:06 34.503267 -118.266840 48 8836ft 101kts
24-May-21 18:07 34.520250 -118.239353 48 8313ft 101kts
24-May-21 18:08 34.537416 -118.212240 49 7813ft 101kts
24-May-21 18:08 34.552088 -118.190173 49 7409ft 100kts
24-May-21 18:09 34.568754 -118.162986 52 6934ft 100kts
24-May-21 18:11 34.587922 -118.130892 49 6285ft 100kts
24-May-21 18:11 34.602034 -118.108408 50 5828ft 100kts
24-May-21 18:12 34.619388 -118.081981 50 5386ft 92kts
24-May-21 18:13 34.633853 -118.055807 72 5382ft 97kts
24-May-21 18:15 34.634985 -118.018090 79 5367ft 95kts
24-May-21 18:15 34.637633 -117.991364 81 5396ft 97kts
24-May-21 18:16 34.639801 -117.958426 81 5421ft 97kts
24-May-21 18:17 34.642904 -117.925699 79 5332ft 97kts
24-May-21 18:18 34.646577 -117.893077 84 5231ft 93kts
24-May-21 18:19 34.648495 -117.861181 79 5345ft 95kts
24-May-21 18:20 34.648876 -117.828956 80 5368ft 95kts
24-May-21 18:21 34.638268 -117.806996 196 5305ft 104kts
24-May-21 18:22 34.620351 -117.832366 215 5658ft 98kts
24-May-21 18:23 34.606283 -117.860313 290 5551ft 108kts
24-May-21 18:24 34.609528 -117.894382 275 5272ft 103kts
24-May-21 18:25 34.611677 -117.931052 276 4461ft 108kts
24-May-21 18:26 34.616260 -117.964765 281 4092ft 95kts
24-May-21 18:27 34.621391 -117.997124 280 3900ft 99kts
24-May-21 18:28 34.626539 -118.029636 282 3306ft 91kts
24-May-21 18:29 34.631612 -118.053851 283 2822ft 71kts
24-May-21 18:30 34.632616 -118.076362 263 2511ft 46kts
24-May-21 18:31 34.633262 -118.082754 0 2505ft 0kts

Navigation Log

Ident Type
Flight plan parsing failed, navigation log unavailable